sensor_id;sensor_type;location;lat;lon;timestamp;pressure;altitude;pressure_sealevel;temperature;humidity
61682;BME280;47577;43.610;25.010;2024-02-23T00:02:18;100144.06;;;8.76;55.32
61682;BME280;47577;43.610;25.010;2024-02-23T00:04:44;100131.13;;;8.67;53.84
61682;BME280;47577;43.610;25.010;2024-02-23T00:07:10;100145.69;;;8.82;53.80
61682;BME280;47577;43.610;25.010;2024-02-23T00:09:36;100154.31;;;8.88;54.47
61682;BME280;47577;43.610;25.010;2024-02-23T00:12:02;100139.66;;;8.76;55.06
61682;BME280;47577;43.610;25.010;2024-02-23T00:14:29;100136.13;;;8.76;55.37
61682;BME280;47577;43.610;25.010;2024-02-23T00:16:56;100126.75;;;8.64;54.12
61682;BME280;47577;43.610;25.010;2024-02-23T00:19:23;100134.50;;;8.72;55.13
61682;BME280;47577;43.610;25.010;2024-02-23T00:21:49;100132.78;;;8.69;55.37
61682;BME280;47577;43.610;25.010;2024-02-23T00:24:16;100116.88;;;8.69;54.50
61682;BME280;47577;43.610;25.010;2024-02-23T00:26:42;100105.38;;;8.70;54.63
61682;BME280;47577;43.610;25.010;2024-02-23T00:29:08;100115.75;;;8.78;54.53
61682;BME280;47577;43.610;25.010;2024-02-23T00:31:34;100112.94;;;8.83;54.56
61682;BME280;47577;43.610;25.010;2024-02-23T00:34:02;100108.19;;;8.92;52.78
61682;BME280;47577;43.610;25.010;2024-02-23T00:36:28;100106.00;;;8.78;54.54
61682;BME280;47577;43.610;25.010;2024-02-23T00:38:53;100112.16;;;8.79;54.90
61682;BME280;47577;43.610;25.010;2024-02-23T00:41:19;100108.31;;;8.89;53.20
61682;BME280;47577;43.610;25.010;2024-02-23T00:43:45;100104.34;;;8.74;53.82
61682;BME280;47577;43.610;25.010;2024-02-23T00:46:11;100117.31;;;8.84;53.13
61682;BME280;47577;43.610;25.010;2024-02-23T00:48:36;100105.09;;;8.80;54.33
61682;BME280;47577;43.610;25.010;2024-02-23T00:51:02;100093.84;;;8.71;54.09
61682;BME280;47577;43.610;25.010;2024-02-23T00:53:30;100106.00;;;8.78;54.66
61682;BME280;47577;43.610;25.010;2024-02-23T00:55:55;100104.34;;;8.74;54.61
61682;BME280;47577;43.610;25.010;2024-02-23T00:58:21;100104.22;;;8.79;54.12
61682;BME280;47577;43.610;25.010;2024-02-23T01:00:47;100100.75;;;8.77;54.60
61682;BME280;47577;43.610;25.010;2024-02-23T01:03:12;100095.50;;;8.75;54.08
61682;BME280;47577;43.610;25.010;2024-02-23T01:05:38;100099.25;;;8.68;54.35
61682;BME280;47577;43.610;25.010;2024-02-23T01:08:05;100088.84;;;8.62;53.81
61682;BME280;47577;43.610;25.010;2024-02-23T01:10:30;100097.19;;;8.48;54.33
61682;BME280;47577;43.610;25.010;2024-02-23T01:12:56;100094.81;;;8.69;54.30
61682;BME280;47577;43.610;25.010;2024-02-23T01:15:22;100088.06;;;8.58;55.22
61682;BME280;47577;43.610;25.010;2024-02-23T01:17:48;100095.56;;;8.44;55.75
61682;BME280;47577;43.610;25.010;2024-02-23T01:20:14;100072.34;;;8.52;55.37
61682;BME280;47577;43.610;25.010;2024-02-23T01:22:39;100093.88;;;8.40;55.44
61682;BME280;47577;43.610;25.010;2024-02-23T01:25:05;100085.66;;;8.51;54.14
61682;BME280;47577;43.610;25.010;2024-02-23T01:27:31;100082.28;;;8.46;54.75
61682;BME280;47577;43.610;25.010;2024-02-23T01:29:57;100077.88;;;8.45;55.38
61682;BME280;47577;43.610;25.010;2024-02-23T01:32:22;100083.09;;;8.48;54.97
61682;BME280;47577;43.610;25.010;2024-02-23T01:34:49;100069.41;;;8.62;55.61
61682;BME280;47577;43.610;25.010;2024-02-23T01:37:14;100067.63;;;8.62;55.54
61682;BME280;47577;43.610;25.010;2024-02-23T01:39:40;100067.97;;;8.51;55.01
61682;BME280;47577;43.610;25.010;2024-02-23T01:42:06;100068.50;;;8.63;55.39
61682;BME280;47577;43.610;25.010;2024-02-23T01:44:32;100072.59;;;8.73;55.82
61682;BME280;47577;43.610;25.010;2024-02-23T01:46:58;100063.09;;;8.66;54.84
61682;BME280;47577;43.610;25.010;2024-02-23T01:49:23;100067.34;;;8.71;55.03
61682;BME280;47577;43.610;25.010;2024-02-23T01:51:56;100069.78;;;8.77;54.48
61682;BME280;47577;43.610;25.010;2024-02-23T01:54:22;100061.06;;;8.74;54.83
61682;BME280;47577;43.610;25.010;2024-02-23T01:56:48;100059.19;;;8.77;55.11
61682;BME280;47577;43.610;25.010;2024-02-23T01:59:14;100067.91;;;8.81;53.74
61682;BME280;47577;43.610;25.010;2024-02-23T02:01:42;100073.88;;;8.89;53.90
61682;BME280;47577;43.610;25.010;2024-02-23T02:04:08;100069.56;;;8.85;54.30
61682;BME280;47577;43.610;25.010;2024-02-23T02:06:33;100075.25;;;9.01;52.78
61682;BME280;47577;43.610;25.010;2024-02-23T02:08:59;100076.75;;;9.08;53.91
61682;BME280;47577;43.610;25.010;2024-02-23T02:11:25;100053.88;;;9.06;53.71
61682;BME280;47577;43.610;25.010;2024-02-23T02:13:50;100066.50;;;9.24;52.06
61682;BME280;47577;43.610;25.010;2024-02-23T02:16:16;100067.44;;;9.23;52.23
61682;BME280;47577;43.610;25.010;2024-02-23T02:18:42;100076.03;;;9.31;53.24
61682;BME280;47577;43.610;25.010;2024-02-23T02:21:25;100085.63;;;9.34;52.42
61682;BME280;47577;43.610;25.010;2024-02-23T02:23:50;100077.69;;;9.34;53.15
61682;BME280;47577;43.610;25.010;2024-02-23T02:26:16;100076.31;;;9.22;52.23
61682;BME280;47577;43.610;25.010;2024-02-23T02:28:41;100074.41;;;9.26;53.02
61682;BME280;47577;43.610;25.010;2024-02-23T02:31:07;100078.72;;;9.30;52.74
61682;BME280;47577;43.610;25.010;2024-02-23T02:33:33;100075.56;;;9.19;51.80
61682;BME280;47577;43.610;25.010;2024-02-23T02:35:59;100073.41;;;9.30;52.99
61682;BME280;47577;43.610;25.010;2024-02-23T02:38:24;100081.47;;;9.27;53.24
61682;BME280;47577;43.610;25.010;2024-02-23T02:40:50;100085.75;;;9.31;52.68
61682;BME280;47577;43.610;25.010;2024-02-23T02:43:15;100077.63;;;9.36;51.62
61682;BME280;47577;43.610;25.010;2024-02-23T02:45:41;100075.19;;;9.29;53.16
61682;BME280;47577;43.610;25.010;2024-02-23T02:48:07;100082.53;;;9.21;51.48
61682;BME280;47577;43.610;25.010;2024-02-23T02:50:33;100073.31;;;9.33;52.28
61682;BME280;47577;43.610;25.010;2024-02-23T02:52:58;100077.72;;;9.32;51.87
61682;BME280;47577;43.610;25.010;2024-02-23T02:55:24;100081.31;;;9.31;52.34
61682;BME280;47577;43.610;25.010;2024-02-23T02:57:50;100083.97;;;9.31;52.13
61682;BME280;47577;43.610;25.010;2024-02-23T03:00:15;100083.19;;;9.28;52.42
61682;BME280;47577;43.610;25.010;2024-02-23T03:02:41;100076.50;;;9.16;51.52
61682;BME280;47577;43.610;25.010;2024-02-23T03:05:07;100079.78;;;8.98;52.79
61682;BME280;47577;43.610;25.010;2024-02-23T03:07:33;100090.06;;;8.80;53.09
61682;BME280;47577;43.610;25.010;2024-02-23T03:09:58;100084.75;;;8.80;53.17
61682;BME280;47577;43.610;25.010;2024-02-23T03:12:24;100088.88;;;8.89;52.32
61682;BME280;47577;43.610;25.010;2024-02-23T03:14:50;100079.41;;;8.82;52.38
61682;BME280;47577;43.610;25.010;2024-02-23T03:17:15;100088.16;;;8.84;53.04
61682;BME280;47577;43.610;25.010;2024-02-23T03:19:41;100095.41;;;8.78;52.87
61682;BME280;47577;43.610;25.010;2024-02-23T03:22:06;100085.78;;;8.74;52.83
61682;BME280;47577;43.610;25.010;2024-02-23T03:24:33;100096.22;;;8.81;52.38
61682;BME280;47577;43.610;25.010;2024-02-23T03:26:58;100093.09;;;8.96;53.16
61682;BME280;47577;43.610;25.010;2024-02-23T03:29:24;100091.53;;;8.89;53.62
61682;BME280;47577;43.610;25.010;2024-02-23T03:31:50;100086.94;;;8.94;52.63
61682;BME280;47577;43.610;25.010;2024-02-23T03:34:16;100092.47;;;8.88;51.99
61682;BME280;47577;43.610;25.010;2024-02-23T03:36:42;100094.94;;;8.92;52.70
61682;BME280;47577;43.610;25.010;2024-02-23T03:39:08;100093.47;;;8.84;53.06
61682;BME280;47577;43.610;25.010;2024-02-23T03:41:34;100083.13;;;8.74;52.91
61682;BME280;47577;43.610;25.010;2024-02-23T03:43:59;100099.00;;;8.76;54.01
61682;BME280;47577;43.610;25.010;2024-02-23T03:46:25;100094.53;;;8.78;53.93
61682;BME280;47577;43.610;25.010;2024-02-23T03:48:50;100096.50;;;8.71;54.76
61682;BME280;47577;43.610;25.010;2024-02-23T03:51:17;100091.94;;;8.76;53.86
61682;BME280;47577;43.610;25.010;2024-02-23T03:53:43;100085.66;;;8.79;53.37
61682;BME280;47577;43.610;25.010;2024-02-23T03:56:08;100095.31;;;8.82;53.65
61682;BME280;47577;43.610;25.010;2024-02-23T03:58:34;100090.59;;;8.91;53.86
61682;BME280;47577;43.610;25.010;2024-02-23T04:00:59;100088.63;;;8.96;53.70
61682;BME280;47577;43.610;25.010;2024-02-23T04:03:25;100088.53;;;9.00;52.98
61682;BME280;47577;43.610;25.010;2024-02-23T04:05:51;100087.28;;;9.11;53.72
61682;BME280;47577;43.610;25.010;2024-02-23T04:08:17;100081.06;;;9.12;52.55
61682;BME280;47577;43.610;25.010;2024-02-23T04:10:43;100088.53;;;9.26;52.65
61682;BME280;47577;43.610;25.010;2024-02-23T04:13:08;100090.91;;;9.36;52.13
61682;BME280;47577;43.610;25.010;2024-02-23T04:15:35;100096.66;;;9.48;52.31
61682;BME280;47577;43.610;25.010;2024-02-23T04:18:01;100089.84;;;9.41;52.67
61682;BME280;47577;43.610;25.010;2024-02-23T04:20:27;100082.69;;;9.43;51.95
61682;BME280;47577;43.610;25.010;2024-02-23T04:22:52;100075.38;;;9.50;51.85
61682;BME280;47577;43.610;25.010;2024-02-23T04:25:18;100078.88;;;9.50;51.21
61682;BME280;47577;43.610;25.010;2024-02-23T04:27:43;100083.34;;;9.50;51.28
61682;BME280;47577;43.610;25.010;2024-02-23T04:30:10;100086.91;;;9.49;51.21
61682;BME280;47577;43.610;25.010;2024-02-23T04:32:36;100091.50;;;9.44;52.80
61682;BME280;47577;43.610;25.010;2024-02-23T04:35:02;100080.72;;;9.48;51.29
61682;BME280;47577;43.610;25.010;2024-02-23T04:37:27;100092.91;;;9.56;50.99
61682;BME280;47577;43.610;25.010;2024-02-23T04:39:53;100082.38;;;9.52;51.70
61682;BME280;47577;43.610;25.010;2024-02-23T04:42:19;100092.06;;;9.54;50.45
61682;BME280;47577;43.610;25.010;2024-02-23T04:44:44;100083.38;;;9.48;51.50
61682;BME280;47577;43.610;25.010;2024-02-23T04:47:10;100087.09;;;9.44;52.04
61682;BME280;47577;43.610;25.010;2024-02-23T04:49:35;100097.44;;;9.25;52.01
61682;BME280;47577;43.610;25.010;2024-02-23T04:52:01;100101.16;;;9.20;52.35
61682;BME280;47577;43.610;25.010;2024-02-23T04:54:26;100098.91;;;9.07;52.08
61682;BME280;47577;43.610;25.010;2024-02-23T04:56:52;100100.63;;;9.08;52.81
61682;BME280;47577;43.610;25.010;2024-02-23T04:59:18;100087.06;;;8.91;51.73
61682;BME280;47577;43.610;25.010;2024-02-23T05:01:43;100097.91;;;8.83;53.56
61682;BME280;47577;43.610;25.010;2024-02-23T05:04:09;100089.03;;;8.84;53.56
61682;BME280;47577;43.610;25.010;2024-02-23T05:06:35;100089.19;;;8.80;54.17
61682;BME280;47577;43.610;25.010;2024-02-23T05:09:01;100094.72;;;8.72;52.80
61682;BME280;47577;43.610;25.010;2024-02-23T05:11:27;100096.63;;;8.68;53.77
61682;BME280;47577;43.610;25.010;2024-02-23T05:13:52;100095.03;;;8.61;53.96
61682;BME280;47577;43.610;25.010;2024-02-23T05:16:18;100095.19;;;8.56;54.32
61682;BME280;47577;43.610;25.010;2024-02-23T05:18:44;100103.97;;;8.58;53.50
61682;BME280;47577;43.610;25.010;2024-02-23T05:21:12;100108.56;;;8.52;55.15
61682;BME280;47577;43.610;25.010;2024-02-23T05:23:37;100109.00;;;8.36;55.02
61682;BME280;47577;43.610;25.010;2024-02-23T05:26:03;100102.97;;;8.31;54.91
61682;BME280;47577;43.610;25.010;2024-02-23T05:28:28;100119.47;;;8.41;54.39
61682;BME280;47577;43.610;25.010;2024-02-23T05:30:54;100127.28;;;8.47;55.38
61682;BME280;47577;43.610;25.010;2024-02-23T05:33:21;100125.34;;;8.52;54.43
61682;BME280;47577;43.610;25.010;2024-02-23T05:35:47;100137.50;;;8.59;53.98
61682;BME280;47577;43.610;25.010;2024-02-23T05:38:16;100136.59;;;8.60;54.57
61682;BME280;47577;43.610;25.010;2024-02-23T05:40:42;100135.53;;;8.66;54.63
61682;BME280;47577;43.610;25.010;2024-02-23T05:43:08;100145.13;;;8.70;54.03
61682;BME280;47577;43.610;25.010;2024-02-23T05:45:34;100148.38;;;8.80;54.55
61682;BME280;47577;43.610;25.010;2024-02-23T05:47:59;100151.84;;;8.82;54.71
61682;BME280;47577;43.610;25.010;2024-02-23T05:50:25;100153.22;;;8.94;54.50
61682;BME280;47577;43.610;25.010;2024-02-23T05:52:50;100149.94;;;8.86;55.69
61682;BME280;47577;43.610;25.010;2024-02-23T05:55:18;100145.97;;;9.01;54.16
61682;BME280;47577;43.610;25.010;2024-02-23T05:57:44;100150.41;;;9.00;53.42
61682;BME280;47577;43.610;25.010;2024-02-23T06:00:10;100147.66;;;9.03;55.51
61682;BME280;47577;43.610;25.010;2024-02-23T06:02:35;100144.09;;;9.04;54.81
61682;BME280;47577;43.610;25.010;2024-02-23T06:05:01;100155.19;;;9.17;56.22
61682;BME280;47577;43.610;25.010;2024-02-23T06:07:27;100156.66;;;9.26;55.53
61682;BME280;47577;43.610;25.010;2024-02-23T06:09:58;100167.09;;;9.32;55.10
61682;BME280;47577;43.610;25.010;2024-02-23T06:12:26;100163.31;;;9.39;55.60
61682;BME280;47577;43.610;25.010;2024-02-23T06:14:52;100164.69;;;9.51;54.14
61682;BME280;47577;43.610;25.010;2024-02-23T06:17:18;100157.41;;;9.58;53.89
61682;BME280;47577;43.610;25.010;2024-02-23T06:19:44;100159.81;;;9.65;55.19
61682;BME280;47577;43.610;25.010;2024-02-23T06:22:09;100157.97;;;9.67;53.51
61682;BME280;47577;43.610;25.010;2024-02-23T06:24:37;100156.97;;;9.70;54.24
61682;BME280;47577;43.610;25.010;2024-02-23T06:27:03;100174.34;;;9.80;53.45
61682;BME280;47577;43.610;25.010;2024-02-23T06:29:29;100161.75;;;9.85;54.01
61682;BME280;47577;43.610;25.010;2024-02-23T06:31:55;100175.50;;;9.98;54.74
61682;BME280;47577;43.610;25.010;2024-02-23T06:34:21;100178.84;;;10.03;54.73
61682;BME280;47577;43.610;25.010;2024-02-23T06:36:47;100177.78;;;10.09;54.62
61682;BME280;47577;43.610;25.010;2024-02-23T06:39:13;100176.69;;;10.15;53.36
61682;BME280;47577;43.610;25.010;2024-02-23T06:41:39;100184.50;;;10.19;54.81
61682;BME280;47577;43.610;25.010;2024-02-23T06:44:05;100185.81;;;10.31;54.58
61682;BME280;47577;43.610;25.010;2024-02-23T06:46:30;100190.81;;;10.42;52.92
61682;BME280;47577;43.610;25.010;2024-02-23T06:48:56;100185.97;;;10.53;53.28
61682;BME280;47577;43.610;25.010;2024-02-23T06:51:22;100181.22;;;10.61;52.71
61682;BME280;47577;43.610;25.010;2024-02-23T06:53:47;100187.13;;;10.70;52.60
61682;BME280;47577;43.610;25.010;2024-02-23T06:56:13;100186.59;;;10.84;52.83
61682;BME280;47577;43.610;25.010;2024-02-23T06:58:39;100183.00;;;10.85;52.75
61682;BME280;47577;43.610;25.010;2024-02-23T07:01:05;100171.91;;;10.73;53.01
61682;BME280;47577;43.610;25.010;2024-02-23T07:03:38;100173.38;;;10.82;52.08
61682;BME280;47577;43.610;25.010;2024-02-23T07:06:05;100175.19;;;11.04;51.69
61682;BME280;47577;43.610;25.010;2024-02-23T07:08:30;100177.97;;;11.23;52.44
61682;BME280;47577;43.610;25.010;2024-02-23T07:10:56;100181.94;;;11.34;50.90
61682;BME280;47577;43.610;25.010;2024-02-23T07:13:22;100185.81;;;11.48;50.93
61682;BME280;47577;43.610;25.010;2024-02-23T07:15:48;100173.84;;;11.38;52.33
61682;BME280;47577;43.610;25.010;2024-02-23T07:18:13;100175.41;;;11.42;52.28
61682;BME280;47577;43.610;25.010;2024-02-23T07:20:40;100162.16;;;11.40;51.24
61682;BME280;47577;43.610;25.010;2024-02-23T07:23:07;100150.22;;;11.50;49.65
61682;BME280;47577;43.610;25.010;2024-02-23T07:25:33;100157.56;;;11.66;48.21
61682;BME280;47577;43.610;25.010;2024-02-23T07:27:58;100155.00;;;11.85;48.97
61682;BME280;47577;43.610;25.010;2024-02-23T07:30:24;100148.69;;;11.87;49.72
61682;BME280;47577;43.610;25.010;2024-02-23T07:32:49;100146.94;;;11.86;49.07
61682;BME280;47577;43.610;25.010;2024-02-23T07:35:15;100164.28;;;12.17;46.08
61682;BME280;47577;43.610;25.010;2024-02-23T07:37:41;100155.22;;;12.21;46.40
61682;BME280;47577;43.610;25.010;2024-02-23T07:40:07;100154.88;;;12.29;46.23
61682;BME280;47577;43.610;25.010;2024-02-23T07:42:33;100166.44;;;12.49;46.59
61682;BME280;47577;43.610;25.010;2024-02-23T07:45:01;100154.94;;;12.67;43.94
61682;BME280;47577;43.610;25.010;2024-02-23T07:47:30;100144.09;;;12.51;44.40
61682;BME280;47577;43.610;25.010;2024-02-23T07:49:56;100151.16;;;12.71;44.44
61682;BME280;47577;43.610;25.010;2024-02-23T07:52:21;100158.91;;;12.77;44.67
61682;BME280;47577;43.610;25.010;2024-02-23T07:54:49;100154.00;;;13.06;42.38
61682;BME280;47577;43.610;25.010;2024-02-23T07:57:20;100154.47;;;13.14;42.84
61682;BME280;47577;43.610;25.010;2024-02-23T07:59:46;100133.91;;;13.35;42.82
61682;BME280;47577;43.610;25.010;2024-02-23T08:02:11;100142.69;;;13.38;42.98
61682;BME280;47577;43.610;25.010;2024-02-23T08:04:37;100144.91;;;13.47;43.61
61682;BME280;47577;43.610;25.010;2024-02-23T08:07:03;100146.66;;;13.48;42.12
61682;BME280;47577;43.610;25.010;2024-02-23T08:09:29;100147.47;;;13.67;40.72
61682;BME280;47577;43.610;25.010;2024-02-23T08:11:55;100143.22;;;13.81;40.86
61682;BME280;47577;43.610;25.010;2024-02-23T08:14:20;100141.47;;;13.80;41.56
61682;BME280;47577;43.610;25.010;2024-02-23T08:16:46;100147.59;;;13.99;40.74
61682;BME280;47577;43.610;25.010;2024-02-23T08:19:12;100146.66;;;14.00;41.31
61682;BME280;47577;43.610;25.010;2024-02-23T08:21:37;100144.06;;;13.99;40.88
61682;BME280;47577;43.610;25.010;2024-02-23T08:24:03;100155.31;;;14.05;40.24
61682;BME280;47577;43.610;25.010;2024-02-23T08:26:29;100155.31;;;14.05;41.19
61682;BME280;47577;43.610;25.010;2024-02-23T08:28:55;100159.63;;;14.08;41.02
61682;BME280;47577;43.610;25.010;2024-02-23T08:31:21;100164.59;;;14.16;39.79
61682;BME280;47577;43.610;25.010;2024-02-23T08:33:47;100151.53;;;14.10;40.92
61682;BME280;47577;43.610;25.010;2024-02-23T08:36:13;100154.19;;;14.27;40.55
61682;BME280;47577;43.610;25.010;2024-02-23T08:38:38;100148.50;;;14.33;40.08
61682;BME280;47577;43.610;25.010;2024-02-23T08:41:04;100152.19;;;14.48;41.28
61682;BME280;47577;43.610;25.010;2024-02-23T08:43:30;100155.63;;;14.50;39.79
61682;BME280;47577;43.610;25.010;2024-02-23T08:45:55;100150.88;;;14.55;38.97
61682;BME280;47577;43.610;25.010;2024-02-23T08:48:21;100152.84;;;14.69;39.25
61682;BME280;47577;43.610;25.010;2024-02-23T08:50:47;100165.47;;;14.83;41.01
61682;BME280;47577;43.610;25.010;2024-02-23T08:53:12;100149.50;;;14.97;39.54
61682;BME280;47577;43.610;25.010;2024-02-23T08:55:38;100160.13;;;14.99;40.54
61682;BME280;47577;43.610;25.010;2024-02-23T08:58:04;100144.41;;;15.09;38.63
61682;BME280;47577;43.610;25.010;2024-02-23T09:00:31;100152.78;;;15.03;38.61
61682;BME280;47577;43.610;25.010;2024-02-23T09:02:57;100155.03;;;15.26;39.13
61682;BME280;47577;43.610;25.010;2024-02-23T09:05:22;100147.50;;;15.33;39.97
61682;BME280;47577;43.610;25.010;2024-02-23T09:07:48;100153.72;;;15.33;37.47
61682;BME280;47577;43.610;25.010;2024-02-23T09:10:14;100155.78;;;15.44;39.69
61682;BME280;47577;43.610;25.010;2024-02-23T09:12:39;100160.84;;;15.65;38.22
61682;BME280;47577;43.610;25.010;2024-02-23T09:15:05;100153.22;;;15.73;38.14
61682;BME280;47577;43.610;25.010;2024-02-23T09:17:31;100149.66;;;15.72;38.99
61682;BME280;47577;43.610;25.010;2024-02-23T09:19:57;100166.16;;;15.81;37.30
61682;BME280;47577;43.610;25.010;2024-02-23T09:22:23;100159.69;;;15.85;37.96
61682;BME280;47577;43.610;25.010;2024-02-23T09:24:49;100156.47;;;15.94;37.56
61682;BME280;47577;43.610;25.010;2024-02-23T09:27:14;100151.13;;;16.23;38.35
61682;BME280;47577;43.610;25.010;2024-02-23T09:29:41;100156.50;;;16.37;39.20
61682;BME280;47577;43.610;25.010;2024-02-23T09:32:09;100154.22;;;16.45;37.17
61682;BME280;47577;43.610;25.010;2024-02-23T09:34:35;100154.13;;;16.47;38.23
61682;BME280;47577;43.610;25.010;2024-02-23T09:37:01;100163.63;;;16.38;37.03
61682;BME280;47577;43.610;25.010;2024-02-23T09:39:27;100151.16;;;16.37;38.07
61682;BME280;47577;43.610;25.010;2024-02-23T09:41:55;100145.50;;;16.42;37.82
61682;BME280;47577;43.610;25.010;2024-02-23T09:44:22;100148.84;;;16.45;36.72
61682;BME280;47577;43.610;25.010;2024-02-23T09:46:48;100155.66;;;16.37;37.75
61682;BME280;47577;43.610;25.010;2024-02-23T09:49:15;100131.59;;;16.21;38.02
61682;BME280;47577;43.610;25.010;2024-02-23T09:51:41;100147.22;;;16.43;37.14
61682;BME280;47577;43.610;25.010;2024-02-23T09:54:07;100137.16;;;16.47;37.67
61682;BME280;47577;43.610;25.010;2024-02-23T09:56:33;100146.75;;;16.51;37.05
61682;BME280;47577;43.610;25.010;2024-02-23T09:59:02;100139.66;;;16.50;37.50
61682;BME280;47577;43.610;25.010;2024-02-23T10:01:29;100136.78;;;16.38;36.15
61682;BME280;47577;43.610;25.010;2024-02-23T10:03:59;100132.84;;;16.73;36.32
61682;BME280;47577;43.610;25.010;2024-02-23T10:06:26;100140.81;;;16.89;36.18
61682;BME280;47577;43.610;25.010;2024-02-23T10:08:55;100138.50;;;16.97;36.13
61682;BME280;47577;43.610;25.010;2024-02-23T10:11:21;100139.91;;;17.17;36.23
61682;BME280;47577;43.610;25.010;2024-02-23T10:13:50;100119.59;;;17.26;34.32
61682;BME280;47577;43.610;25.010;2024-02-23T10:16:18;100125.22;;;17.35;35.68
61682;BME280;47577;43.610;25.010;2024-02-23T10:18:46;100127.31;;;17.45;35.28
61682;BME280;47577;43.610;25.010;2024-02-23T10:21:17;100106.91;;;17.55;32.27
61682;BME280;47577;43.610;25.010;2024-02-23T10:23:47;100121.31;;;17.54;33.45
61682;BME280;47577;43.610;25.010;2024-02-23T10:26:13;100118.03;;;17.76;32.99
61682;BME280;47577;43.610;25.010;2024-02-23T10:28:45;100103.84;;;17.74;32.17
61682;BME280;47577;43.610;25.010;2024-02-23T10:31:11;100108.97;;;17.64;32.06
61682;BME280;47577;43.610;25.010;2024-02-23T10:33:38;100105.78;;;17.85;33.62
61682;BME280;47577;43.610;25.010;2024-02-23T10:36:04;100094.56;;;17.78;31.20
61682;BME280;47577;43.610;25.010;2024-02-23T10:38:35;100091.84;;;17.93;32.22
61682;BME280;47577;43.610;25.010;2024-02-23T10:41:05;100090.88;;;17.94;31.33
61682;BME280;47577;43.610;25.010;2024-02-23T10:43:44;100107.13;;;18.05;30.74
61682;BME280;47577;43.610;25.010;2024-02-23T10:46:15;100096.09;;;17.69;32.81
61682;BME280;47577;43.610;25.010;2024-02-23T10:48:42;100080.34;;;17.90;32.03
61682;BME280;47577;43.610;25.010;2024-02-23T10:51:10;100084.66;;;17.93;32.80
61682;BME280;47577;43.610;25.010;2024-02-23T10:53:39;100078.38;;;18.18;32.04
61682;BME280;47577;43.610;25.010;2024-02-23T10:56:05;100066.78;;;18.18;31.30
61682;BME280;47577;43.610;25.010;2024-02-23T10:58:32;100073.84;;;17.80;31.79
61682;BME280;47577;43.610;25.010;2024-02-23T11:01:02;100081.19;;;18.04;31.26
61682;BME280;47577;43.610;25.010;2024-02-23T11:03:30;100077.44;;;17.94;30.42
61682;BME280;47577;43.610;25.010;2024-02-23T11:05:57;100070.00;;;18.10;32.97
61682;BME280;47577;43.610;25.010;2024-02-23T11:08:22;100084.41;;;18.35;31.29
61682;BME280;47577;43.610;25.010;2024-02-23T11:10:51;100080.00;;;18.34;30.40
61682;BME280;47577;43.610;25.010;2024-02-23T11:13:17;100052.31;;;18.32;30.85
61682;BME280;47577;43.610;25.010;2024-02-23T11:15:43;100068.25;;;18.35;30.88
61682;BME280;47577;43.610;25.010;2024-02-23T11:18:27;100068.16;;;17.98;30.86
61682;BME280;47577;43.610;25.010;2024-02-23T11:21:00;100047.69;;;17.82;31.65
61682;BME280;47577;43.610;25.010;2024-02-23T11:23:27;100049.44;;;17.96;31.24
61682;BME280;47577;43.610;25.010;2024-02-23T11:26:19;100055.59;;;18.11;32.04
61682;BME280;47577;43.610;25.010;2024-02-23T11:28:51;100054.28;;;18.17;30.83
61682;BME280;47577;43.610;25.010;2024-02-23T11:31:20;100044.84;;;18.48;32.29
61682;BME280;47577;43.610;25.010;2024-02-23T11:33:55;100049.72;;;18.80;30.79
61682;BME280;47577;43.610;25.010;2024-02-23T11:36:34;100053.16;;;18.95;30.97
61682;BME280;47577;43.610;25.010;2024-02-23T11:39:00;100042.13;;;18.61;29.57
61682;BME280;47577;43.610;25.010;2024-02-23T11:41:28;100051.94;;;18.62;30.82
61682;BME280;47577;43.610;25.010;2024-02-23T11:43:55;100046.22;;;18.67;29.99
61682;BME280;47577;43.610;25.010;2024-02-23T11:46:21;100037.00;;;18.82;30.43
61682;BME280;47577;43.610;25.010;2024-02-23T11:48:48;100048.66;;;18.95;30.13
61682;BME280;47577;43.610;25.010;2024-02-23T11:51:20;100040.28;;;18.87;29.47
61682;BME280;47577;43.610;25.010;2024-02-23T11:53:49;100026.59;;;18.77;30.48
61682;BME280;47577;43.610;25.010;2024-02-23T11:56:15;100012.91;;;19.05;31.09
61682;BME280;47577;43.610;25.010;2024-02-23T11:58:41;100032.41;;;19.32;30.17
61682;BME280;47577;43.610;25.010;2024-02-23T12:01:08;100018.94;;;19.32;29.75
61682;BME280;47577;43.610;25.010;2024-02-23T12:03:34;100026.88;;;18.98;30.81
61682;BME280;47577;43.610;25.010;2024-02-23T12:06:03;100022.59;;;19.07;30.74
61682;BME280;47577;43.610;25.010;2024-02-23T12:08:30;100017.09;;;18.85;30.70
61682;BME280;47577;43.610;25.010;2024-02-23T12:11:04;100005.50;;;18.84;30.84
61682;BME280;47577;43.610;25.010;2024-02-23T12:13:30;99999.91;;;18.74;31.05
61682;BME280;47577;43.610;25.010;2024-02-23T12:15:58;100014.31;;;19.10;31.46
61682;BME280;47577;43.610;25.010;2024-02-23T12:18:23;100000.66;;;19.00;30.61
61682;BME280;47577;43.610;25.010;2024-02-23T12:20:52;100017.41;;;18.93;31.48
61682;BME280;47577;43.610;25.010;2024-02-23T12:23:17;100012.44;;;19.11;30.39
61682;BME280;47577;43.610;25.010;2024-02-23T12:25:54;99992.94;;;18.96;30.87
61682;BME280;47577;43.610;25.010;2024-02-23T12:28:20;99998.09;;;19.34;30.77
61682;BME280;47577;43.610;25.010;2024-02-23T12:30:45;99996.94;;;19.72;30.66
61682;BME280;47577;43.610;25.010;2024-02-23T12:33:15;99991.09;;;19.90;29.74
61682;BME280;47577;43.610;25.010;2024-02-23T12:35:41;100001.41;;;20.07;29.46
61682;BME280;47577;43.610;25.010;2024-02-23T12:38:07;99999.44;;;20.09;29.47
61682;BME280;47577;43.610;25.010;2024-02-23T12:40:32;100005.34;;;20.03;28.80
61682;BME280;47577;43.610;25.010;2024-02-23T12:42:58;100005.56;;;19.89;29.61